Terminal Aerodrome Forecast
Issued by NWS

Home | Current Version | Previous Version | Text Only | Print | Product List | Glossary On
Versions: 1 2 3 4 5 6 7 8 9 10 11 12 13 14 15 16 17 18 19
027
FTUS43 KAPX 131120
TAFAPN
TAF
KAPN 131120Z 1312/1412 24004KT P6SM BKN028 OVC120
     FM131600 VRB03KT P6SM BKN030
     FM132000 06005KT P6SM -SHSN OVC030
     FM132300 02006KT P6SM -SHSN OVC030
     FM140500 35007KT P6SM VCSH BKN035
     FM140800 33008KT P6SM SCT030=

USA.gov is the U.S. government's official web portal to all federal, state and local government web resources and services.